Murrells Inlet, SC

6:58 PM EST on March 01, 2015 (GMT -0500)
Palm Bay | Change Station
CLOSE
Current Station
Personal Weather Station
Location: Murrells Inlet, SC
Elevation: 18 ft
Nearby Weather Stations

Elev 18 ft 33.57 °N, 79.05 °W | Updated 30 seconds ago

Overcast
Overcast
43.5 °F
Feels Like 44 °F
N
1.0
Wind Variable Wind from NW
Gusts 3.0 mph

Today
High -- | Low -- °F
--% Chance of Precip.
Yesterday
High -- | Low -- °F
Precip. -- in
6:44 AM 6:12 PM
Waxing Gibbous, 88% visible
Pressure 30.40 in
Visibility 2.0 miles
Clouds Overcast 400 ft
Windchill 44 °F
Dew Point 42 °F
Humidity 96%
Rainfall 0.23 in
Snow Depth Not available.
UV 0.0 out of 12
Pollen .20 out of 12
Air Quality Not available.
Flu Activity Not available.
METAR KMYR 012345Z 34010KT 2SM -RA BR OVC004 07/04 A3040

More Conditions Fewer Conditions

Pressure 30.40 in
Visibility 2.0 miles
Clouds Overcast 400 ft
Windchill 44 °F
Dew Point 42 °F
Humidity 96%
Rainfall 0.23 in
Snow Depth Not available.
UV 0.0 out of 12
Pollen .20 out of 12
Air Quality Not available.
Flu Activity Not available.
METAR KMYR 012345Z 34010KT 2SM -RA BR OVC004 07/04 A3040

More Conditions Fewer Conditions

10-Day Weather Forecast

Almanac

Astronomy

Mar. 01, 2015 Rise Set
Actual Time
Civil Twilight
Nautical Twilight
Astronomical Twilight
Moon
Length of Visible Light
Length of Day
Tomorrow will be .
, % of the Moon is Illuminated

Today's Extremes

State Highs State Lows

Community

WunderPhotos

Upload Photos

1,801,614 photos uploaded!

WunderBlogs® & News

Nearby

Air Quality

  Air Quality AQ Index Pollutant
Not available.

Snow Depth

Station Depth Elevation

Earthquake Activity

City Distance Mag. Time & Date
Minimum magnitude displayed is 2.5.

Coastal Water Temperatures

Place Temperature

Nearby Weather Stations